createdAt,value
2017-10-04T00:00:40.590Z,10.90
2017-10-04T00:03:08.058Z,10.80
2017-10-04T00:05:35.539Z,10.85
2017-10-04T00:08:03.111Z,10.86
2017-10-04T00:10:30.576Z,10.81
2017-10-04T00:12:58.073Z,10.78
2017-10-04T00:15:25.555Z,10.71
2017-10-04T00:17:53.056Z,10.63
2017-10-04T00:20:20.512Z,10.70
2017-10-04T00:22:48.279Z,10.67
2017-10-04T00:25:15.756Z,10.67
2017-10-04T00:27:43.230Z,10.65
2017-10-04T00:30:10.702Z,10.62
2017-10-04T00:32:38.171Z,10.63
2017-10-04T00:35:05.661Z,10.61
2017-10-04T00:37:33.123Z,10.62
2017-10-04T00:40:00.596Z,10.64
2017-10-04T00:42:28.066Z,10.62
2017-10-04T00:44:55.900Z,10.65
2017-10-04T00:47:23.364Z,10.61
2017-10-04T00:49:50.838Z,10.51
2017-10-04T00:52:18.352Z,10.59
2017-10-04T00:54:45.803Z,10.60
2017-10-04T00:57:13.281Z,10.59
2017-10-04T00:59:41.796Z,10.59
2017-10-04T01:02:09.279Z,10.49
2017-10-04T01:04:36.727Z,10.57
2017-10-04T01:07:04.571Z,10.44
2017-10-04T01:09:32.055Z,10.48
2017-10-04T01:11:59.556Z,10.43
2017-10-04T01:14:27.034Z,10.49
2017-10-04T01:16:54.501Z,10.53
2017-10-04T01:19:22.035Z,10.54
2017-10-04T01:21:49.590Z,10.51
2017-10-04T01:24:17.073Z,10.42
2017-10-04T01:26:44.534Z,10.43
2017-10-04T01:29:12.967Z,10.48
2017-10-04T01:31:40.418Z,10.52
2017-10-04T01:34:07.905Z,10.58
2017-10-04T01:36:35.364Z,10.60
2017-10-04T01:39:02.848Z,10.58
2017-10-04T01:41:30.321Z,10.59
2017-10-04T01:43:57.851Z,10.59
2017-10-04T01:46:25.327Z,10.43
2017-10-04T01:48:52.798Z,10.28
2017-10-04T01:51:20.328Z,10.24
2017-10-04T01:53:47.897Z,10.30
2017-10-04T01:56:15.372Z,10.41
2017-10-04T01:58:42.868Z,10.41
2017-10-04T02:01:10.649Z,10.36
2017-10-04T02:03:38.102Z,10.32
2017-10-04T02:06:05.675Z,10.31
2017-10-04T02:08:33.162Z,10.34
2017-10-04T02:11:00.629Z,10.35
2017-10-04T02:13:28.112Z,10.27
2017-10-04T02:15:55.575Z,10.33
2017-10-04T02:18:23.063Z,10.37
2017-10-04T02:20:50.531Z,10.39
2017-10-04T02:23:18.071Z,10.47
2017-10-04T02:25:45.619Z,10.37
2017-10-04T02:28:13.185Z,10.41
2017-10-04T02:30:40.676Z,10.39
2017-10-04T02:33:08.140Z,10.49
2017-10-04T02:35:35.971Z,10.57
2017-10-04T02:38:03.529Z,10.51
2017-10-04T02:40:31.011Z,10.60
2017-10-04T02:42:58.473Z,10.61
2017-10-04T02:45:25.948Z,10.63
2017-10-04T02:47:53.419Z,10.66
2017-10-04T02:50:20.874Z,10.55
2017-10-04T02:52:48.342Z,10.61
2017-10-04T02:55:15.829Z,10.46
2017-10-04T02:57:43.315Z,10.52
2017-10-04T03:00:10.839Z,10.43
2017-10-04T03:02:38.297Z,10.45
2017-10-04T03:05:05.871Z,10.43
2017-10-04T03:07:33.338Z,10.37
2017-10-04T03:10:00.815Z,10.39
2017-10-04T03:12:28.338Z,10.40
2017-10-04T03:14:55.813Z,10.43
2017-10-04T03:17:23.272Z,10.39
2017-10-04T03:19:50.852Z,10.41
2017-10-04T03:22:18.325Z,10.42
2017-10-04T03:24:45.783Z,10.47
2017-10-04T03:27:13.285Z,10.43
2017-10-04T03:29:40.742Z,10.47
2017-10-04T03:32:08.224Z,10.42
2017-10-04T03:34:35.678Z,10.41
2017-10-04T03:37:03.164Z,10.57
2017-10-04T03:39:30.636Z,10.51
2017-10-04T03:41:58.454Z,10.51
2017-10-04T03:44:26.078Z,10.56
2017-10-04T03:46:53.546Z,10.45
2017-10-04T03:49:21.129Z,10.47
2017-10-04T03:51:48.611Z,10.43
2017-10-04T03:54:16.095Z,10.49
2017-10-04T03:56:43.559Z,10.51
2017-10-04T03:59:11.036Z,10.51
2017-10-04T04:01:38.599Z,10.41
2017-10-04T04:04:06.069Z,10.39
2017-10-04T04:06:33.630Z,10.44
2017-10-04T04:09:01.117Z,10.39
2017-10-04T04:11:28.593Z,10.41
2017-10-04T04:13:56.061Z,10.41
2017-10-04T04:16:23.549Z,10.35
2017-10-04T04:18:51.008Z,10.33
2017-10-04T04:21:18.779Z,10.32
2017-10-04T04:23:46.329Z,10.23
2017-10-04T04:26:13.895Z,10.23
2017-10-04T04:28:41.366Z,10.20
2017-10-04T04:31:08.827Z,10.21
2017-10-04T04:33:36.350Z,10.18
2017-10-04T04:36:03.814Z,10.14
2017-10-04T04:38:43.272Z,10.15
2017-10-04T04:41:10.832Z,10.18
2017-10-04T04:43:38.316Z,10.17
2017-10-04T04:46:05.793Z,10.23
2017-10-04T04:48:33.615Z,10.19
2017-10-04T04:51:01.089Z,10.17
2017-10-04T04:53:28.648Z,10.16
2017-10-04T04:55:56.129Z,10.03
2017-10-04T04:58:24.141Z,9.98
2017-10-04T05:00:51.721Z,9.94
2017-10-04T05:03:19.189Z,9.89
2017-10-04T05:05:46.667Z,9.88
2017-10-04T05:08:14.150Z,9.84
2017-10-04T05:10:41.630Z,9.80
2017-10-04T05:13:09.095Z,9.86
2017-10-04T05:15:36.653Z,9.85
2017-10-04T05:18:04.124Z,9.94
2017-10-04T05:20:31.619Z,9.90
2017-10-04T05:22:59.111Z,9.87
2017-10-04T05:25:26.556Z,9.80
2017-10-04T05:27:54.057Z,9.83
2017-10-04T05:30:21.551Z,9.88
2017-10-04T05:32:49.026Z,9.93
2017-10-04T05:35:16.515Z,10.02
2017-10-04T05:37:44.088Z,10.00
2017-10-04T05:40:11.661Z,9.99
2017-10-04T05:42:39.147Z,9.95
2017-10-04T05:45:06.649Z,9.99
2017-10-04T05:47:34.115Z,9.95
2017-10-04T05:50:01.613Z,9.96
2017-10-04T05:52:29.087Z,10.00
2017-10-04T05:54:56.550Z,10.02
2017-10-04T05:57:24.047Z,9.96
2017-10-04T05:59:51.515Z,10.04
2017-10-04T06:02:19.018Z,10.01
2017-10-04T06:04:46.494Z,10.01
2017-10-04T06:07:13.994Z,10.07
2017-10-04T06:09:41.531Z,10.02
2017-10-04T06:12:09.287Z,10.14
2017-10-04T06:14:36.750Z,10.17
2017-10-04T06:17:04.328Z,10.36
2017-10-04T06:19:31.819Z,10.40
2017-10-04T06:21:59.322Z,10.48
2017-10-04T06:24:26.811Z,10.45
2017-10-04T06:26:54.280Z,10.53
2017-10-04T06:29:21.784Z,10.57
2017-10-04T06:31:49.277Z,10.57
2017-10-04T06:34:16.787Z,10.58
2017-10-04T06:36:44.394Z,10.58
2017-10-04T06:39:11.872Z,10.57
2017-10-04T06:41:39.363Z,10.59
2017-10-04T06:44:06.871Z,10.55
2017-10-04T06:46:34.383Z,10.70
2017-10-04T06:49:01.874Z,10.75
2017-10-04T06:51:29.394Z,10.73
2017-10-04T06:53:56.858Z,10.74
2017-10-04T06:56:24.642Z,10.75
2017-10-04T06:58:52.106Z,10.74
2017-10-04T07:01:19.576Z,10.79
2017-10-04T07:03:47.229Z,10.74
2017-10-04T07:06:14.694Z,10.92
2017-10-04T07:08:42.178Z,11.00
2017-10-04T07:11:09.655Z,10.94
2017-10-04T07:13:37.143Z,10.88
2017-10-04T07:16:04.611Z,10.86
2017-10-04T07:18:32.294Z,10.91
2017-10-04T07:20:59.780Z,10.95
2017-10-04T07:23:27.254Z,10.98
2017-10-04T07:25:54.770Z,11.13
2017-10-04T07:28:22.243Z,11.17
2017-10-04T07:30:49.724Z,11.22
2017-10-04T07:33:17.207Z,11.25
2017-10-04T07:35:44.887Z,11.33
2017-10-04T07:38:12.383Z,11.42
2017-10-04T07:40:39.845Z,11.54
2017-10-04T07:43:07.341Z,11.53
2017-10-04T07:45:34.910Z,11.53
2017-10-04T07:48:02.394Z,11.61
2017-10-04T07:50:29.856Z,11.59
2017-10-04T07:52:57.359Z,11.59
2017-10-04T07:55:24.845Z,11.69
2017-10-04T07:57:52.335Z,11.68
2017-10-04T08:00:19.807Z,11.53
2017-10-04T08:02:47.295Z,11.59
2017-10-04T08:05:14.765Z,11.58
2017-10-04T08:07:42.262Z,11.54
2017-10-04T08:10:09.745Z,11.57
2017-10-04T08:12:37.221Z,11.65
2017-10-04T08:15:04.711Z,11.62
2017-10-04T08:17:32.183Z,11.60
2017-10-04T08:19:59.676Z,11.57
2017-10-04T08:22:27.204Z,11.71
2017-10-04T08:24:54.690Z,11.68
2017-10-04T08:27:22.186Z,11.71
2017-10-04T08:29:49.708Z,11.66
2017-10-04T08:32:17.674Z,11.69
2017-10-04T08:34:45.145Z,11.89
2017-10-04T08:37:12.643Z,11.96
2017-10-04T08:39:40.114Z,12.09
2017-10-04T08:42:07.612Z,12.16
2017-10-04T08:44:35.140Z,12.16
2017-10-04T08:47:14.472Z,12.41
2017-10-04T08:49:42.005Z,12.49
2017-10-04T08:52:09.487Z,12.55
2017-10-04T08:54:36.967Z,12.62
2017-10-04T08:57:04.477Z,12.67
2017-10-04T08:59:31.966Z,12.58
2017-10-04T09:01:59.425Z,12.53
2017-10-04T09:04:38.753Z,12.56
2017-10-04T09:07:06.227Z,12.74
2017-10-04T09:09:33.695Z,12.77
2017-10-04T09:12:01.171Z,12.72
2017-10-04T09:14:28.643Z,12.84
2017-10-04T09:16:56.106Z,12.98
2017-10-04T09:19:23.583Z,13.18
2017-10-04T09:21:51.127Z,13.39
2017-10-04T09:24:18.625Z,13.44
2017-10-04T09:26:46.077Z,13.50
2017-10-04T09:29:13.549Z,13.53
2017-10-04T09:31:41.038Z,13.65
2017-10-04T09:34:08.499Z,13.55
2017-10-04T09:36:36.078Z,13.48
2017-10-04T09:39:03.563Z,13.40
2017-10-04T09:41:31.030Z,13.47
2017-10-04T09:43:58.529Z,13.52
2017-10-04T09:46:26.067Z,13.56
2017-10-04T09:48:53.531Z,13.62
2017-10-04T09:51:21.054Z,13.80
2017-10-04T09:53:48.701Z,13.93
2017-10-04T09:56:16.189Z,13.91
2017-10-04T09:58:43.661Z,13.91
2017-10-04T10:01:11.118Z,13.90
2017-10-04T10:03:38.601Z,13.91
2017-10-04T10:06:06.081Z,13.91
2017-10-04T10:08:33.830Z,13.86
2017-10-04T10:11:01.315Z,13.93
2017-10-04T10:13:28.777Z,13.87
2017-10-04T10:15:56.267Z,13.80
2017-10-04T10:18:23.722Z,13.93
2017-10-04T10:20:51.220Z,13.88
2017-10-04T10:23:19.317Z,13.76
2017-10-04T10:25:46.871Z,13.89
2017-10-04T10:28:14.353Z,13.74
2017-10-04T10:30:41.810Z,13.75
2017-10-04T10:33:09.351Z,13.69
2017-10-04T10:38:03.620Z,13.69
2017-10-04T10:40:31.077Z,13.72
2017-10-04T10:42:58.633Z,13.68
2017-10-04T10:45:26.103Z,13.70
2017-10-04T10:47:53.567Z,13.84
2017-10-04T10:50:21.048Z,14.05
2017-10-04T10:52:48.589Z,14.30
2017-10-04T10:55:16.141Z,14.57
2017-10-04T10:57:43.617Z,14.71
2017-10-04T11:00:11.093Z,14.80
2017-10-04T11:02:38.566Z,14.88
2017-10-04T11:05:06.026Z,15.07
2017-10-04T11:07:33.501Z,15.31
2017-10-04T11:10:00.988Z,15.51
2017-10-04T11:12:28.478Z,15.54
2017-10-04T11:14:55.971Z,15.41
2017-10-04T11:17:23.452Z,15.22
2017-10-04T11:19:50.975Z,15.27
2017-10-04T11:22:18.433Z,15.12
2017-10-04T11:24:45.940Z,15.04
2017-10-04T11:27:13.492Z,15.01
2017-10-04T11:29:41.069Z,15.16
2017-10-04T11:32:08.622Z,15.28
2017-10-04T11:34:36.074Z,15.33
2017-10-04T11:37:03.550Z,15.46
2017-10-04T11:39:31.015Z,15.67
2017-10-04T11:41:58.486Z,15.68
2017-10-04T11:44:26.001Z,15.60
2017-10-04T11:46:53.589Z,15.48
2017-10-04T11:49:21.075Z,15.62
2017-10-04T11:51:48.542Z,15.89
2017-10-04T11:54:16.023Z,16.23
2017-10-04T11:56:43.492Z,16.31
2017-10-04T11:59:11.004Z,16.06
2017-10-04T12:01:38.468Z,15.76
2017-10-04T12:04:05.943Z,15.57
2017-10-04T12:06:33.422Z,15.52
2017-10-04T12:09:00.912Z,15.43
2017-10-04T12:11:28.659Z,15.44
2017-10-04T12:13:56.196Z,15.56
2017-10-04T12:16:23.685Z,15.72
2017-10-04T12:18:51.146Z,15.92
2017-10-04T12:21:18.685Z,16.11
2017-10-04T12:23:46.169Z,16.33
2017-10-04T12:26:13.644Z,16.44
2017-10-04T12:28:41.264Z,16.11
2017-10-04T12:31:08.723Z,16.09
2017-10-04T12:33:36.190Z,16.27
2017-10-04T12:36:03.666Z,16.36
2017-10-04T12:38:31.131Z,16.45
2017-10-04T12:40:58.619Z,16.60
2017-10-04T12:43:26.232Z,16.76
2017-10-04T12:45:53.722Z,16.71
2017-10-04T12:48:21.191Z,16.75
2017-10-04T12:50:48.650Z,16.62
2017-10-04T12:53:16.224Z,16.75
2017-10-04T12:55:43.793Z,16.72
2017-10-04T12:58:11.267Z,16.60
2017-10-04T13:00:38.751Z,16.52
2017-10-04T13:03:06.263Z,16.55
2017-10-04T13:05:33.740Z,16.76
2017-10-04T13:08:01.229Z,16.80
2017-10-04T13:10:28.697Z,16.99
2017-10-04T13:12:56.216Z,17.36
2017-10-04T13:15:23.699Z,17.56
2017-10-04T13:17:51.220Z,17.43
2017-10-04T13:20:18.797Z,17.15
2017-10-04T13:22:46.296Z,17.00
2017-10-04T13:25:13.815Z,16.91
2017-10-04T13:27:41.271Z,16.66
2017-10-04T13:30:08.755Z,16.46
2017-10-04T13:32:36.262Z,16.28
2017-10-04T13:35:03.721Z,16.15
2017-10-04T13:37:31.204Z,16.06
2017-10-04T13:39:58.747Z,15.86
2017-10-04T13:42:26.250Z,15.76
2017-10-04T13:44:53.717Z,15.60
2017-10-04T13:47:21.172Z,15.60
2017-10-04T13:49:48.655Z,15.57
2017-10-04T13:52:16.134Z,15.67
2017-10-04T13:54:43.643Z,15.53
2017-10-04T13:57:11.165Z,15.57
2017-10-04T13:59:38.642Z,15.61
2017-10-04T14:02:06.196Z,15.50
2017-10-04T14:04:33.735Z,15.47
2017-10-04T14:07:01.290Z,15.53
2017-10-04T14:09:28.761Z,15.50
2017-10-04T14:11:56.246Z,15.35
2017-10-04T14:14:23.729Z,15.45
2017-10-04T14:16:51.215Z,15.34
2017-10-04T14:19:18.709Z,15.27
2017-10-04T14:21:46.181Z,15.26
2017-10-04T14:24:13.836Z,15.26
2017-10-04T14:26:41.298Z,15.15
2017-10-04T14:29:08.788Z,15.10
2017-10-04T14:31:36.275Z,15.09
2017-10-04T14:34:03.855Z,15.12
2017-10-04T14:36:31.329Z,15.13
2017-10-04T14:38:58.792Z,15.11
2017-10-04T14:41:26.339Z,15.05
2017-10-04T14:43:53.824Z,14.99
2017-10-04T14:46:21.406Z,14.92
2017-10-04T14:48:48.998Z,14.94
2017-10-04T14:51:16.660Z,14.96
2017-10-04T14:53:44.141Z,14.91
2017-10-04T14:56:11.627Z,14.96
2017-10-04T14:58:39.466Z,14.90
2017-10-04T15:01:06.983Z,14.95
2017-10-04T15:03:34.467Z,14.84
2017-10-04T15:06:01.971Z,14.88
2017-10-04T15:08:29.545Z,14.97
2017-10-04T15:10:57.062Z,14.93
2017-10-04T15:13:24.562Z,14.91
2017-10-04T15:15:52.066Z,14.84
2017-10-04T15:18:20.272Z,14.87
2017-10-04T15:20:47.750Z,14.81
2017-10-04T15:23:15.226Z,14.75
2017-10-04T15:25:42.732Z,14.72
2017-10-04T15:28:10.295Z,14.60
2017-10-04T15:30:37.795Z,14.61
2017-10-04T15:33:05.362Z,14.53
2017-10-04T15:35:32.866Z,14.52
2017-10-04T15:38:00.344Z,14.49
2017-10-04T15:40:27.839Z,14.44
2017-10-04T15:42:55.380Z,14.51
2017-10-04T15:45:22.858Z,14.43
2017-10-04T15:47:50.391Z,14.44
2017-10-04T15:50:17.880Z,14.28
2017-10-04T15:52:45.378Z,14.40
2017-10-04T15:55:12.858Z,14.39
2017-10-04T15:57:40.336Z,14.33
2017-10-04T16:00:07.876Z,14.36
2017-10-04T16:02:35.371Z,14.23
2017-10-04T16:05:02.851Z,14.23
2017-10-04T16:07:30.316Z,14.20
2017-10-04T16:09:57.806Z,14.24
2017-10-04T16:12:25.301Z,14.18
2017-10-04T16:14:52.779Z,14.15
2017-10-04T16:17:20.241Z,14.14
2017-10-04T16:19:47.752Z,14.10
2017-10-04T16:22:15.306Z,13.95
2017-10-04T16:24:42.762Z,14.01
2017-10-04T16:27:10.343Z,13.98
2017-10-04T16:29:37.813Z,13.99
2017-10-04T16:32:05.321Z,13.99
2017-10-04T16:34:32.799Z,13.94
2017-10-04T16:37:00.283Z,13.97
2017-10-04T16:39:27.802Z,13.82
2017-10-04T16:41:55.291Z,13.91
2017-10-04T16:44:22.870Z,13.78
2017-10-04T16:46:50.332Z,13.80
2017-10-04T16:49:17.815Z,13.69
2017-10-04T16:51:45.270Z,13.67
2017-10-04T16:54:12.737Z,13.59
2017-10-04T16:56:40.202Z,13.70
2017-10-04T16:59:07.793Z,13.77
2017-10-04T17:01:35.282Z,13.71
2017-10-04T17:04:02.806Z,13.68
2017-10-04T17:06:30.311Z,13.67
2017-10-04T17:08:57.794Z,13.61
2017-10-04T17:11:25.286Z,13.68
2017-10-04T17:13:52.773Z,13.66
2017-10-04T17:16:20.242Z,13.64
2017-10-04T17:18:47.713Z,13.71
2017-10-04T17:21:15.198Z,13.73
2017-10-04T17:23:42.667Z,13.70
2017-10-04T17:26:10.177Z,13.65
2017-10-04T17:28:37.651Z,13.51
2017-10-04T17:31:05.130Z,13.56
2017-10-04T17:33:32.625Z,13.62
2017-10-04T17:36:00.208Z,13.53
2017-10-04T17:38:27.740Z,13.52
2017-10-04T17:40:55.231Z,13.46
2017-10-04T17:43:22.751Z,13.49
2017-10-04T17:45:50.234Z,13.41
2017-10-04T17:48:17.759Z,13.44
2017-10-04T17:50:45.248Z,13.46
2017-10-04T17:53:12.712Z,13.38
2017-10-04T17:55:40.235Z,13.46
2017-10-04T17:58:07.707Z,13.53
2017-10-04T18:00:35.166Z,13.46
2017-10-04T18:03:02.649Z,13.36
2017-10-04T18:05:30.129Z,13.52
2017-10-04T18:07:57.635Z,13.44
2017-10-04T18:10:25.100Z,13.41
2017-10-04T18:12:52.759Z,13.47
2017-10-04T18:15:20.244Z,13.35
2017-10-04T18:17:47.723Z,13.42
2017-10-04T18:20:15.209Z,13.40
2017-10-04T18:22:42.671Z,13.53
2017-10-04T18:25:10.155Z,13.41
2017-10-04T18:27:37.633Z,13.44
2017-10-04T18:30:05.135Z,13.47
2017-10-04T18:32:32.693Z,13.41
2017-10-04T18:35:00.155Z,13.44
2017-10-04T18:37:27.636Z,13.45
2017-10-04T18:39:55.101Z,13.36
2017-10-04T18:42:22.591Z,13.44
2017-10-04T18:44:50.094Z,13.46
2017-10-04T18:47:17.583Z,13.44
2017-10-04T18:49:45.055Z,13.35
2017-10-04T18:52:13.326Z,13.32
2017-10-04T18:54:40.800Z,13.38
2017-10-04T18:57:08.262Z,13.44
2017-10-04T18:59:35.758Z,13.30
2017-10-04T19:02:03.225Z,13.23
2017-10-04T19:04:30.687Z,13.21
2017-10-04T19:06:58.189Z,13.30
2017-10-04T19:09:25.662Z,13.30
2017-10-04T19:11:53.192Z,13.28
2017-10-04T19:14:20.642Z,13.14
2017-10-04T19:16:48.103Z,13.30
2017-10-04T19:19:15.585Z,13.32
2017-10-04T19:21:43.063Z,13.35
2017-10-04T19:24:10.640Z,13.29
2017-10-04T19:26:38.130Z,13.22
2017-10-04T19:29:05.849Z,13.21
2017-10-04T19:31:33.326Z,13.25
2017-10-04T19:34:00.912Z,13.23
2017-10-04T19:36:28.405Z,13.18
2017-10-04T19:38:55.875Z,13.17
2017-10-04T19:41:23.382Z,13.27
2017-10-04T19:43:50.873Z,13.21
2017-10-04T19:46:18.697Z,13.21
2017-10-04T19:48:46.191Z,13.19
2017-10-04T19:51:13.688Z,13.17
2017-10-04T19:53:41.163Z,13.17
2017-10-04T19:56:08.627Z,13.08
2017-10-04T19:58:36.116Z,13.08
2017-10-04T20:01:03.579Z,13.07
2017-10-04T20:03:31.175Z,13.04
2017-10-04T20:05:58.998Z,13.07
2017-10-04T20:08:26.507Z,13.07
2017-10-04T20:10:53.983Z,13.11
2017-10-04T20:13:21.470Z,13.12
2017-10-04T20:15:48.948Z,13.04
2017-10-04T20:18:16.434Z,13.14
2017-10-04T20:20:43.932Z,13.09
2017-10-04T20:23:11.424Z,13.13
2017-10-04T20:25:38.931Z,13.11
2017-10-04T20:28:06.399Z,13.20
2017-10-04T20:30:33.867Z,13.18
2017-10-04T20:33:01.346Z,13.16
2017-10-04T20:35:28.824Z,13.17
2017-10-04T20:37:56.298Z,13.18
2017-10-04T20:40:23.772Z,13.19
2017-10-04T20:42:51.239Z,13.10
2017-10-04T20:45:18.793Z,13.22
2017-10-04T20:47:46.276Z,13.31
2017-10-04T20:50:13.770Z,13.31
2017-10-04T20:52:46.093Z,13.19
2017-10-04T20:55:14.096Z,13.23
2017-10-04T20:57:41.592Z,13.36
2017-10-04T21:00:09.060Z,13.30
2017-10-04T21:02:36.528Z,13.38
2017-10-04T21:05:04.013Z,13.35
2017-10-04T21:07:31.506Z,13.34
2017-10-04T21:09:58.954Z,13.38
2017-10-04T21:12:26.405Z,13.40
2017-10-04T21:14:53.887Z,13.32
2017-10-04T21:17:21.357Z,13.32
2017-10-04T21:19:48.842Z,13.32
2017-10-04T21:22:16.312Z,13.34
2017-10-04T21:24:43.800Z,13.33
2017-10-04T21:27:11.283Z,13.25
2017-10-04T21:29:38.751Z,13.31
2017-10-04T21:32:06.257Z,13.26
2017-10-04T21:34:33.734Z,13.20
2017-10-04T21:37:01.207Z,13.19
2017-10-04T21:39:28.722Z,13.13
2017-10-04T21:41:56.191Z,13.15
2017-10-04T21:44:23.668Z,13.06
2017-10-04T21:46:51.154Z,13.09
2017-10-04T21:49:18.686Z,13.17
2017-10-04T21:51:46.167Z,13.14
2017-10-04T21:54:13.620Z,13.18
2017-10-04T21:56:41.307Z,13.14
2017-10-04T21:59:08.770Z,13.03
2017-10-04T22:01:36.268Z,12.97
2017-10-04T22:04:03.741Z,13.02
2017-10-04T22:06:31.213Z,13.03
2017-10-04T22:08:58.710Z,13.07
2017-10-04T22:11:26.164Z,13.02
2017-10-04T22:13:53.648Z,13.04
2017-10-04T22:16:21.101Z,13.00
2017-10-04T22:18:48.564Z,13.06
2017-10-04T22:21:16.058Z,13.05
2017-10-04T22:23:43.530Z,12.96
2017-10-04T22:26:11.010Z,12.84
2017-10-04T22:28:38.458Z,12.81
2017-10-04T22:31:05.945Z,12.79
2017-10-04T22:33:33.415Z,12.73
2017-10-04T22:36:00.988Z,12.72
2017-10-04T22:38:28.446Z,12.75
2017-10-04T22:40:55.902Z,12.67
2017-10-04T22:43:23.370Z,12.63
2017-10-04T22:45:50.910Z,12.65
2017-10-04T22:48:18.474Z,12.72
2017-10-04T22:50:45.946Z,12.64
2017-10-04T22:53:13.500Z,12.61
2017-10-04T22:55:40.979Z,12.64
2017-10-04T22:58:08.443Z,12.64
2017-10-04T23:00:35.922Z,12.56
2017-10-04T23:03:03.379Z,12.45
2017-10-04T23:05:30.863Z,12.45
2017-10-04T23:07:58.323Z,12.44
2017-10-04T23:10:25.791Z,12.40
2017-10-04T23:12:53.269Z,12.51
2017-10-04T23:15:20.804Z,12.50
2017-10-04T23:17:48.575Z,12.52
2017-10-04T23:20:16.133Z,12.46
2017-10-04T23:22:43.599Z,12.46
2017-10-04T23:25:11.106Z,12.50
2017-10-04T23:27:38.567Z,12.43
2017-10-04T23:30:06.046Z,12.38
2017-10-04T23:32:33.501Z,12.50
2017-10-04T23:35:00.970Z,12.58
2017-10-04T23:37:28.529Z,12.46
2017-10-04T23:39:56.298Z,12.42
2017-10-04T23:42:23.746Z,12.44
2017-10-04T23:44:51.217Z,12.43
2017-10-04T23:47:18.688Z,12.50
2017-10-04T23:49:46.152Z,12.54
2017-10-04T23:52:13.620Z,12.43
2017-10-04T23:54:42.066Z,12.49
2017-10-04T23:57:09.550Z,12.44
2017-10-04T23:59:37.014Z,12.42
